KBGM/BGM METAR and TAF weather

Enter ICAO airport designator
Station Type Date Time Source
KBGM METAR 2022/06/30 01:53 UTC NOAA

KBGM 300153Z 29003KT 10SM FEW065 20/09 A3021 RMK AO2 SLP224 T02000094


Station Type Date Time Source
KBGM Decoded METAR 2022/06/30 01:53 UTC NOAA

BINGHAMTON REGIONAL AIRPORT, NY, United States (KBGM) 42-12N 75-59W 492M
Jun 29, 2022 - 09:53 PM EDT / 2022.06.30 0153 UTC
Wind: from the WNW (290 degrees) at 3 MPH (3 KT):0
Visibility: 10 mile(s):0
Sky conditions: mostly clear
Temperature: 68.0 F (20.0 C)
Dew Point: 48.9 F (9.4 C)
Relative Humidity: 50%
Pressure (altimeter): 30.21 in. Hg (1023 hPa)
ob: KBGM 300153Z 29003KT 10SM FEW065 20/09 A3021 RMK AO2 SLP224 T02000094
cycle: 2

Station Type Date Time Source
KBGM TAF 2022/06/29 18:42 UTC NOAA

TAF KBGM 291741Z 2918/3018 25008G14KT P6SM SCT200
FM292200 29005KT P6SM FEW150

Example: see airport list